Time;durP1;ratioP1;P1;durP2;ratioP2;P2;SDS_P1;SDS_P2;PMS_P1;PMS_P2;Temp;Humidity;BMP_temperature;BMP_pressure;BME280_temperature;BME280_humidity;BME280_pressure;Samples;Min_cycle;Max_cycle;Signal;HPM_P1;HPM_P2
2023/07/02 00:02:08;;;;;;;17.30;7.50;;;;;;;19.86;73.85;100218.16;5119036;28;20020;-72
2023/07/02 00:04:34;;;;;;;16.30;6.70;;;;;;;19.87;73.70;100219.88;5118932;28;20031;-72
2023/07/02 00:07:00;;;;;;;15.48;7.35;;;;;;;19.86;73.75;100215.47;5118838;28;20027;-72
2023/07/02 00:09:25;;;;;;;17.27;7.30;;;;;;;19.86;73.37;100211.94;5118776;28;20926;-72
2023/07/02 00:11:50;;;;;;;15.03;7.17;;;;;;;19.88;73.48;100218.97;5100510;28;20034;-72
2023/07/02 00:14:16;;;;;;;17.02;7.25;;;;;;;19.88;73.69;100208.28;5118736;28;20022;-72
2023/07/02 00:16:45;;;;;;;13.97;7.57;;;;;;;19.87;73.97;100209.19;5118518;28;20083;-72
2023/07/02 00:19:14;;;;;;;17.98;8.07;;;;;;;19.87;74.05;100201.19;5100233;28;20038;-72
2023/07/02 00:21:40;;;;;;;16.00;7.50;;;;;;;19.87;74.16;100208.31;5118839;28;20032;-72
2023/07/02 00:24:06;;;;;;;15.32;7.47;;;;;;;19.88;73.99;100210.06;5118848;28;20106;-73
2023/07/02 00:26:32;;;;;;;18.23;7.78;;;;;;;19.89;74.06;100209.13;5100306;28;20027;-71
2023/07/02 00:28:57;;;;;;;15.30;7.00;;;;;;;19.83;74.27;100204.94;5118511;28;20556;-73
2023/07/02 00:31:24;;;;;;;17.33;7.20;;;;;;;19.75;74.98;100205.25;5118394;28;20050;-71
2023/07/02 00:33:50;;;;;;;16.60;6.83;;;;;;;19.73;74.86;100200.91;5121817;27;20031;-71
2023/07/02 00:36:16;;;;;;;19.08;7.75;;;;;;;19.69;74.92;100201.97;5138976;27;20437;-74
2023/07/02 00:38:43;;;;;;;19.30;7.43;;;;;;;19.69;74.77;100196.63;5139150;27;20059;-71
2023/07/02 00:41:09;;;;;;;19.67;7.68;;;;;;;19.75;74.43;100196.38;5123358;27;20392;-74
2023/07/02 00:43:35;;;;;;;17.27;7.72;;;;;;;19.84;74.51;100195.09;5118000;28;20547;-72
2023/07/02 00:46:00;;;;;;;17.53;7.70;;;;;;;19.90;74.00;100197.53;5118043;28;20027;-72
2023/07/02 00:48:26;;;;;;;15.83;7.90;;;;;;;19.96;73.93;100191.03;5100201;28;20027;-73
2023/07/02 00:50:52;;;;;;;15.65;7.35;;;;;;;20.00;73.54;100190.84;5118129;28;20030;-72
2023/07/02 00:53:17;;;;;;;17.57;7.77;;;;;;;20.03;73.35;100181.84;5118049;28;20553;-72
2023/07/02 00:55:43;;;;;;;16.40;7.07;;;;;;;20.03;73.33;100184.50;5117790;28;20048;-72
2023/07/02 00:58:09;;;;;;;13.52;6.95;;;;;;;20.03;73.34;100180.03;5117953;28;20019;-72
2023/07/02 01:00:35;;;;;;;15.67;6.80;;;;;;;20.05;73.24;100175.47;5117668;28;20088;-72
2023/07/02 01:03:00;;;;;;;18.05;7.75;;;;;;;20.05;72.70;100170.13;5099479;28;20114;-72
2023/07/02 01:05:35;;;;;;;13.70;6.27;;;;;;;20.07;72.83;100176.25;5117345;28;20391;-72
2023/07/02 01:08:02;;;;;;;14.20;6.72;;;;;;;20.08;73.09;100171.81;5117634;28;20016;-72
2023/07/02 01:10:28;;;;;;;16.45;6.65;;;;;;;20.07;72.92;100165.56;5099577;28;20023;-72
2023/07/02 01:12:55;;;;;;;18.57;7.00;;;;;;;20.05;73.12;100162.09;5117803;28;20510;-71
2023/07/02 01:15:21;;;;;;;11.85;5.95;;;;;;;20.04;73.07;100165.72;5117248;28;20019;-72
2023/07/02 01:17:48;;;;;;;14.80;7.15;;;;;;;20.05;72.86;100164.78;5117551;28;20020;-72
2023/07/02 01:20:14;;;;;;;17.05;6.93;;;;;;;20.06;72.90;100174.53;5117773;28;20347;-72
2023/07/02 01:22:40;;;;;;;13.77;7.00;;;;;;;20.06;72.89;100163.84;5117514;28;20027;-72
2023/07/02 01:25:08;;;;;;;16.63;6.95;;;;;;;20.07;72.91;100168.25;5117590;28;20079;-72
2023/07/02 01:27:35;;;;;;;17.55;7.15;;;;;;;20.08;72.64;100164.63;5117346;28;20023;-72
2023/07/02 01:30:00;;;;;;;19.00;7.50;;;;;;;20.08;72.96;100167.31;5117188;28;20102;-72
2023/07/02 01:32:26;;;;;;;15.23;6.83;;;;;;;20.08;72.79;100164.63;5136407;27;20050;-72
2023/07/02 01:34:53;;;;;;;18.97;7.30;;;;;;;20.09;72.94;100162.84;5138182;27;20030;-72
2023/07/02 01:37:19;;;;;;;16.08;6.97;;;;;;;20.07;72.91;100165.56;5137702;27;20490;-72
2023/07/02 01:39:44;;;;;;;15.02;7.15;;;;;;;20.08;72.79;100161.97;5134448;27;20027;-72
2023/07/02 01:42:15;;;;;;;21.20;7.67;;;;;;;20.09;72.53;100162.84;5117206;28;20031;-72
2023/07/02 01:44:41;;;;;;;18.55;7.28;;;;;;;20.08;72.82;100158.44;5098976;28;20099;-72
2023/07/02 01:47:06;;;;;;;15.07;7.23;;;;;;;20.08;72.58;100155.75;5116838;28;20115;-70
2023/07/02 01:49:32;;;;;;;16.73;7.18;;;;;;;20.09;72.35;100157.50;5117165;28;20437;-69
2023/07/02 01:51:58;;;;;;;16.30;7.87;;;;;;;20.08;72.78;100156.63;5116987;28;20028;-69
2023/07/02 01:54:27;;;;;;;20.00;8.00;;;;;;;20.07;72.79;100152.22;5117179;28;20024;-69
2023/07/02 01:56:53;;;;;;;15.98;7.40;;;;;;;20.07;72.63;100154.88;5117081;28;20105;-72
2023/07/02 01:59:19;;;;;;;17.10;8.00;;;;;;;20.06;72.37;100153.16;5116996;28;20027;-72
2023/07/02 02:01:45;;;;;;;16.52;7.72;;;;;;;20.07;72.69;100152.22;5116752;28;20030;-72
2023/07/02 02:04:11;;;;;;;17.80;7.50;;;;;;;20.08;72.61;100153.09;5098755;28;20399;-72
2023/07/02 02:06:37;;;;;;;20.75;8.48;;;;;;;20.06;72.36;100141.59;5098434;28;20015;-72
2023/07/02 02:09:05;;;;;;;16.60;7.90;;;;;;;20.00;72.45;100142.75;5116963;28;20103;-72
2023/07/02 02:11:36;;;;;;;17.05;8.02;;;;;;;19.96;72.53;100143.81;5116811;28;20028;-72
2023/07/02 02:14:02;;;;;;;15.02;8.20;;;;;;;19.95;72.78;100139.41;5116830;28;20027;-72
2023/07/02 02:16:28;;;;;;;17.23;8.03;;;;;;;19.94;72.65;100143.88;5116656;28;20027;-72
2023/07/02 02:18:54;;;;;;;20.77;7.75;;;;;;;19.96;72.58;100141.16;5119359;28;20027;-72
2023/07/02 02:21:20;;;;;;;19.87;8.10;;;;;;;19.93;72.38;100136.81;5121104;28;20024;-72
2023/07/02 02:23:47;;;;;;;18.33;8.60;;;;;;;19.93;72.70;100142.16;5102559;28;20261;-72
2023/07/02 02:26:12;;;;;;;17.67;7.93;;;;;;;19.95;72.35;100139.41;5109566;27;20038;-72
2023/07/02 02:28:38;;;;;;;19.65;8.23;;;;;;;19.97;72.33;100142.88;5123168;27;20376;-72
2023/07/02 02:31:03;;;;;;;18.77;8.07;;;;;;;19.96;72.48;100145.63;5141272;27;20023;-72
2023/07/02 02:33:29;;;;;;;19.50;8.53;;;;;;;19.94;72.17;100138.53;5141466;27;20023;-72
2023/07/02 02:35:54;;;;;;;18.00;8.37;;;;;;;19.94;72.32;100140.34;5141708;27;20478;-72
2023/07/02 02:38:19;;;;;;;17.80;8.05;;;;;;;19.94;72.09;100141.22;5141624;27;20023;-72
2023/07/02 02:40:45;;;;;;;20.67;8.23;;;;;;;19.93;71.96;100141.28;5121226;27;20076;-72
2023/07/02 02:43:10;;;;;;;23.90;8.67;;;;;;;19.93;72.16;100135.94;5120783;28;20030;-72
2023/07/02 02:45:36;;;;;;;19.37;8.53;;;;;;;19.89;72.20;100140.53;5101746;28;20057;-72
2023/07/02 02:48:01;;;;;;;20.10;8.77;;;;;;;19.87;72.08;100138.84;5120673;28;20024;-72
2023/07/02 02:50:26;;;;;;;20.67;9.40;;;;;;;19.85;71.78;100144.28;5120585;28;20269;-72
2023/07/02 02:52:52;;;;;;;20.60;9.80;;;;;;;19.85;71.70;100146.94;5120601;28;20028;-72
2023/07/02 02:55:18;;;;;;;19.60;9.48;;;;;;;19.85;71.87;100148.72;5120315;28;20051;-72
2023/07/02 02:57:43;;;;;;;22.23;9.33;;;;;;;19.84;71.74;100142.53;5120344;28;20445;-72
2023/07/02 03:00:10;;;;;;;25.30;9.93;;;;;;;19.84;72.01;100138.97;5101804;28;20047;-72
2023/07/02 03:02:35;;;;;;;20.25;9.65;;;;;;;19.85;72.04;100132.69;5120287;28;20467;-72
2023/07/02 03:05:02;;;;;;;20.95;9.82;;;;;;;19.84;71.93;100145.22;5120206;28;20023;-72
2023/07/02 03:07:27;;;;;;;25.20;9.70;;;;;;;19.86;71.71;100145.13;5120185;28;20016;-72
2023/07/02 03:09:53;;;;;;;19.65;9.77;;;;;;;19.82;71.95;100143.53;5119877;28;20031;-72
2023/07/02 03:12:18;;;;;;;23.20;9.73;;;;;;;19.80;71.86;100147.16;5120279;28;20055;-72
2023/07/02 03:14:44;;;;;;;22.30;9.02;;;;;;;19.81;72.03;100148.03;5120159;28;20027;-72
2023/07/02 03:17:10;;;;;;;25.47;10.00;;;;;;;19.84;71.85;100141.66;5119646;28;20019;-72
2023/07/02 03:19:35;;;;;;;23.00;9.75;;;;;;;19.84;71.89;100147.00;5101666;28;20512;-72
2023/07/02 03:22:01;;;;;;;21.10;9.37;;;;;;;19.82;72.03;100140.88;5119954;28;20039;-72
2023/07/02 03:24:26;;;;;;;21.47;9.33;;;;;;;19.82;72.21;100148.88;5128645;27;20016;-72
2023/07/02 03:26:51;;;;;;;19.52;9.63;;;;;;;19.82;71.69;100143.53;5119817;28;20103;-72
2023/07/02 03:29:19;;;;;;;21.40;8.90;;;;;;;19.79;71.73;100150.75;5101026;28;20063;-72
2023/07/02 03:31:45;;;;;;;20.25;9.57;;;;;;;19.75;72.26;100143.81;5101186;28;20015;-72
2023/07/02 03:34:10;;;;;;;22.37;9.47;;;;;;;19.74;72.04;100150.09;5119732;28;20034;-72
2023/07/02 03:36:37;;;;;;;19.63;9.07;;;;;;;19.72;72.42;100137.72;5119828;28;20016;-72
2023/07/02 03:39:03;;;;;;;19.63;8.60;;;;;;;19.70;72.54;100140.47;5119666;28;20063;-72
2023/07/02 03:41:28;;;;;;;15.52;8.90;;;;;;;19.70;72.51;100135.13;5119468;28;20164;-72
2023/07/02 03:43:54;;;;;;;18.43;9.40;;;;;;;19.70;72.12;100135.13;5101102;28;20114;-72
2023/07/02 03:46:20;;;;;;;20.15;9.38;;;;;;;19.69;72.41;100143.22;5119319;28;20067;-72
2023/07/02 03:48:45;;;;;;;26.27;9.80;;;;;;;19.70;72.57;100140.47;5101046;28;20038;-72
2023/07/02 03:51:12;;;;;;;19.33;9.07;;;;;;;19.70;72.51;100135.13;5119654;28;20073;-72
2023/07/02 03:53:38;;;;;;;21.67;9.80;;;;;;;19.72;72.62;100132.38;5119182;28;20046;-72
2023/07/02 03:56:03;;;;;;;19.95;9.70;;;;;;;19.72;72.68;100133.25;5100795;28;20465;-72
2023/07/02 03:58:29;;;;;;;21.80;8.97;;;;;;;19.71;72.41;100136.88;5101108;28;20052;-72
2023/07/02 04:00:54;;;;;;;19.87;9.57;;;;;;;19.73;72.64;100132.34;5119199;28;20079;-72
2023/07/02 04:03:19;;;;;;;17.80;8.33;;;;;;;19.73;72.52;100132.34;5100808;28;20020;-72
2023/07/02 04:05:45;;;;;;;17.65;7.90;;;;;;;19.74;72.22;100135.84;5119352;28;20103;-72
2023/07/02 04:08:10;;;;;;;19.60;8.13;;;;;;;19.75;72.57;100133.13;5118963;28;20020;-72
2023/07/02 04:10:36;;;;;;;19.27;8.47;;;;;;;19.74;72.61;100131.38;5117866;28;20042;-72
2023/07/02 04:13:01;;;;;;;16.03;7.63;;;;;;;19.75;72.36;100132.25;5100674;28;20503;-72
2023/07/02 04:15:27;;;;;;;21.05;7.90;;;;;;;19.74;72.50;100142.06;5118784;28;20019;-72
2023/07/02 04:17:52;;;;;;;21.10;8.63;;;;;;;19.74;72.25;100142.06;5118484;28;20106;-72
2023/07/02 04:20:18;;;;;;;18.90;8.13;;;;;;;19.75;72.72;100148.28;5131079;27;20056;-72
2023/07/02 04:22:45;;;;;;;17.33;7.60;;;;;;;19.75;72.61;100143.81;5139461;27;20026;-72
2023/07/02 04:25:14;;;;;;;16.25;7.10;;;;;;;19.74;72.45;100144.75;5104078;28;20084;-72
2023/07/02 04:27:43;;;;;;;15.60;7.32;;;;;;;19.75;72.74;100140.25;5100220;28;20041;-72
2023/07/02 04:30:10;;;;;;;14.65;6.72;;;;;;;19.76;72.52;100145.53;5118526;28;20063;-72
2023/07/02 04:32:36;;;;;;;14.40;6.30;;;;;;;19.78;72.50;100137.47;5118698;28;20110;-72
2023/07/02 04:35:02;;;;;;;16.20;7.00;;;;;;;19.82;72.47;100140.88;5100407;28;20055;-72
2023/07/02 04:37:28;;;;;;;13.75;6.78;;;;;;;19.83;72.80;100140.81;5118538;28;20030;-72
2023/07/02 04:39:54;;;;;;;16.73;6.70;;;;;;;19.82;72.83;100135.50;5118457;28;20015;-72
2023/07/02 04:42:19;;;;;;;14.13;6.47;;;;;;;19.82;73.12;100139.06;5123439;27;20034;-72
2023/07/02 04:44:45;;;;;;;14.23;6.67;;;;;;;19.82;72.90;100138.19;5128189;27;20071;-72
2023/07/02 04:47:11;;;;;;;14.75;6.50;;;;;;;19.82;73.12;100141.75;5118117;28;20030;-72
2023/07/02 04:49:37;;;;;;;14.20;6.17;;;;;;;19.80;73.47;100140.94;5118510;28;20042;-72
2023/07/02 04:52:03;;;;;;;20.77;6.47;;;;;;;19.80;73.08;100139.13;5099877;28;20114;-72
2023/07/02 04:54:28;;;;;;;12.65;6.20;;;;;;;19.82;73.29;100127.50;5118381;28;20035;-72
2023/07/02 04:56:53;;;;;;;13.70;6.20;;;;;;;19.81;73.67;100132.00;5099641;28;20138;-72
2023/07/02 04:59:21;;;;;;;13.90;5.20;;;;;;;19.79;73.44;100139.22;5099887;28;20035;-72
2023/07/02 05:01:46;;;;;;;11.10;5.55;;;;;;;19.77;73.90;100144.59;5099472;28;20506;-72
2023/07/02 05:04:12;;;;;;;12.80;5.63;;;;;;;19.75;73.99;100143.81;5118162;28;20031;-72
2023/07/02 05:06:37;;;;;;;13.63;5.43;;;;;;;19.75;73.92;100138.47;5118141;28;20019;-72
2023/07/02 05:09:03;;;;;;;13.00;5.23;;;;;;;19.74;74.04;100147.41;5117949;28;20483;-72
2023/07/02 05:11:28;;;;;;;13.93;6.00;;;;;;;19.75;74.07;100149.16;5117970;28;20039;-72
2023/07/02 05:13:54;;;;;;;9.27;5.10;;;;;;;19.75;74.30;100146.47;5117582;28;20079;-72
2023/07/02 05:16:19;;;;;;;10.07;4.70;;;;;;;19.75;74.12;100151.81;5117646;28;20023;-72
2023/07/02 05:18:44;;;;;;;12.10;4.77;;;;;;;19.78;74.08;100153.50;5099476;28;20038;-72
2023/07/02 05:21:11;;;;;;;11.20;4.57;;;;;;;19.78;74.09;100146.34;5117740;28;20110;-72
2023/07/02 05:23:37;;;;;;;13.38;4.97;;;;;;;19.80;74.13;100147.16;5117789;28;20132;-72
2023/07/02 05:26:02;;;;;;;10.97;4.70;;;;;;;19.81;74.33;100142.69;5117474;28;20066;-72
2023/07/02 05:28:27;;;;;;;10.43;4.53;;;;;;;19.80;74.49;100144.47;5117850;28;20480;-72
2023/07/02 05:30:53;;;;;;;13.07;4.72;;;;;;;19.79;74.33;100150.75;5117257;28;20035;-72
2023/07/02 05:33:18;;;;;;;11.60;4.80;;;;;;;19.83;74.19;100142.59;5117697;28;20035;-72
2023/07/02 05:35:45;;;;;;;10.13;4.47;;;;;;;19.84;74.54;100139.88;5117529;28;20034;-72
2023/07/02 05:38:11;;;;;;;12.20;4.53;;;;;;;19.87;74.26;100139.72;5117628;28;20016;-72
2023/07/02 05:40:37;;;;;;;12.27;4.70;;;;;;;19.93;73.99;100141.28;5117414;28;20030;-72
2023/07/02 05:43:02;;;;;;;11.38;4.28;;;;;;;19.97;74.20;100137.53;5117704;28;20126;-72
2023/07/02 05:45:28;;;;;;;9.53;4.10;;;;;;;20.03;74.04;100142.59;5116803;28;20119;-72
2023/07/02 05:47:54;;;;;;;11.77;4.30;;;;;;;20.05;73.78;100146.06;5099160;28;20015;-72
2023/07/02 05:50:19;;;;;;;7.67;3.97;;;;;;;20.06;73.79;100147.81;5099127;28;20127;-72
2023/07/02 05:52:45;;;;;;;9.77;4.00;;;;;;;20.12;74.00;100151.13;5117479;28;20034;-72
2023/07/02 05:55:10;;;;;;;11.33;4.67;;;;;;;20.19;74.01;100141.91;5117207;28;20027;-72
2023/07/02 05:57:37;;;;;;;9.45;3.70;;;;;;;20.21;73.66;100151.56;5116993;28;20055;-72
2023/07/02 06:00:04;;;;;;;10.70;4.37;;;;;;;20.26;73.73;100162.06;5117029;28;20032;-72
2023/07/02 06:02:30;;;;;;;9.88;4.03;;;;;;;20.29;73.42;100155.72;5117565;28;20037;-72
2023/07/02 06:04:55;;;;;;;9.47;4.30;;;;;;;20.29;73.62;100156.56;5117090;28;20119;-72
2023/07/02 06:07:20;;;;;;;9.35;4.45;;;;;;;20.28;73.23;100165.53;5117148;28;20515;-72
2023/07/02 06:09:46;;;;;;;10.13;3.90;;;;;;;20.29;73.54;100153.91;5116894;28;20510;-72
2023/07/02 06:12:11;;;;;;;9.53;4.10;;;;;;;20.29;73.51;100159.25;5117112;28;20032;-72
2023/07/02 06:14:37;;;;;;;11.80;4.20;;;;;;;20.31;73.56;100149.34;5098861;28;20122;-72
2023/07/02 06:17:05;;;;;;;11.10;3.63;;;;;;;20.37;73.40;100148.19;5116459;28;20028;-72
2023/07/02 06:19:31;;;;;;;9.60;4.07;;;;;;;20.36;73.27;100155.34;5117186;28;20097;-72
2023/07/02 06:21:56;;;;;;;10.02;3.95;;;;;;;20.36;73.29;100158.00;5117234;28;20031;-72
2023/07/02 06:24:21;;;;;;;10.30;4.00;;;;;;;20.36;73.46;100160.69;5116907;28;20492;-72
2023/07/02 06:26:47;;;;;;;12.47;4.30;;;;;;;20.36;73.02;100160.69;5117108;28;20480;-72
2023/07/02 06:29:12;;;;;;;10.27;4.20;;;;;;;20.36;72.94;100160.69;5117097;28;20086;-72
2023/07/02 06:31:37;;;;;;;9.47;3.63;;;;;;;20.36;73.27;100152.66;5098748;28;20016;-72
2023/07/02 06:34:03;;;;;;;8.45;3.42;;;;;;;20.40;73.07;100164.09;5116999;28;20020;-72
2023/07/02 06:36:28;;;;;;;7.70;3.37;;;;;;;20.41;73.00;100162.31;5117264;28;20024;-72
2023/07/02 06:38:54;;;;;;;11.23;3.70;;;;;;;20.42;72.93;100164.03;5116911;28;20372;-72
2023/07/02 06:41:19;;;;;;;8.57;3.37;;;;;;;20.41;72.91;100167.66;5116856;28;20027;-72
2023/07/02 06:43:44;;;;;;;8.90;3.43;;;;;;;20.39;73.19;100164.19;5116839;28;20023;-72
2023/07/02 06:46:11;;;;;;;7.65;3.38;;;;;;;20.40;72.67;100161.41;5116792;28;20055;-72
2023/07/02 06:48:36;;;;;;;8.53;3.50;;;;;;;20.42;72.72;100167.56;5098470;28;20460;-72
2023/07/02 06:51:02;;;;;;;8.88;3.45;;;;;;;20.44;72.95;100163.00;5117013;28;20059;-72
2023/07/02 06:53:27;;;;;;;9.90;3.47;;;;;;;20.49;72.80;100162.78;5116902;28;20031;-72
2023/07/02 06:55:53;;;;;;;11.23;3.67;;;;;;;20.56;72.74;100171.41;5116674;28;21336;-72
2023/07/02 06:58:18;;;;;;;7.25;3.15;;;;;;;20.65;72.42;100166.50;5098244;28;20030;-72
2023/07/02 07:00:43;;;;;;;8.23;3.60;;;;;;;20.75;72.25;100168.72;5116573;28;20104;-72
2023/07/02 07:03:09;;;;;;;10.00;3.40;;;;;;;20.84;72.31;100170.97;5116567;28;20453;-72
2023/07/02 07:05:34;;;;;;;10.03;3.40;;;;;;;20.91;72.21;100168.84;5119854;28;20039;-72
2023/07/02 07:08:00;;;;;;;7.53;3.20;;;;;;;20.94;71.70;100171.38;5119950;28;20027;-72
2023/07/02 07:10:26;;;;;;;7.57;3.20;;;;;;;20.94;72.14;100169.59;5120394;28;20027;-72
2023/07/02 07:12:52;;;;;;;9.13;3.20;;;;;;;20.95;72.10;100173.13;5120143;28;20408;-72
2023/07/02 07:15:17;;;;;;;9.43;2.90;;;;;;;20.93;71.77;100181.25;5119910;28;20096;-72
2023/07/02 07:17:43;;;;;;;8.03;3.07;;;;;;;20.92;71.87;100171.47;5119980;28;20092;-72
2023/07/02 07:20:08;;;;;;;6.97;2.70;;;;;;;20.93;71.75;100164.28;5120350;28;20032;-72
2023/07/02 07:22:34;;;;;;;6.07;3.10;;;;;;;20.97;72.17;100168.56;5118728;28;20115;-72
2023/07/02 07:24:59;;;;;;;7.03;2.85;;;;;;;21.02;71.67;100162.97;5115792;28;20073;-72
2023/07/02 07:27:25;;;;;;;8.27;3.00;;;;;;;21.07;71.87;100160.94;5101651;28;20019;-72
2023/07/02 07:29:50;;;;;;;6.67;2.30;;;;;;;21.07;71.55;100161.81;5119806;28;20031;-72
2023/07/02 07:32:16;;;;;;;6.83;2.50;;;;;;;21.07;71.64;100163.63;5119753;28;20032;-72
2023/07/02 07:34:42;;;;;;;7.93;2.78;;;;;;;21.07;71.65;100161.81;5120113;28;20069;-72
2023/07/02 07:37:07;;;;;;;7.72;2.72;;;;;;;21.05;71.57;100162.81;5101479;28;20023;-72
2023/07/02 07:39:33;;;;;;;9.73;3.03;;;;;;;21.04;71.97;100155.75;5119335;28;20023;-72
2023/07/02 07:41:58;;;;;;;7.60;2.13;;;;;;;21.07;71.43;100160.94;5119434;28;20032;-72
2023/07/02 07:44:28;;;;;;;7.17;2.80;;;;;;;21.12;71.52;100164.28;5101149;28;20269;-72
2023/07/02 07:46:57;;;;;;;7.55;2.17;;;;;;;21.21;71.36;100168.28;5119423;28;20058;-73
2023/07/02 07:49:22;;;;;;;6.07;2.13;;;;;;;21.28;71.28;100163.47;5119646;28;20094;-73
2023/07/02 07:51:48;;;;;;;7.05;2.10;;;;;;;21.34;71.34;100165.84;5119612;28;20032;-73
2023/07/02 07:54:14;;;;;;;8.37;2.60;;;;;;;21.36;71.09;100162.16;5118036;28;20027;-73
2023/07/02 07:56:39;;;;;;;6.70;2.40;;;;;;;21.39;70.58;100160.25;5097342;28;20043;-72
2023/07/02 07:59:05;;;;;;;8.33;2.20;;;;;;;21.39;71.02;100165.63;5099078;28;20603;-73
2023/07/02 08:01:30;;;;;;;7.70;2.30;;;;;;;21.39;70.59;100163.81;5098571;28;20066;-73
2023/07/02 08:03:56;;;;;;;5.87;2.03;;;;;;;21.40;70.96;100167.34;5097350;28;20028;-73
2023/07/02 08:06:21;;;;;;;6.68;2.38;;;;;;;21.42;70.81;100158.31;5098309;28;20503;-73
2023/07/02 08:08:47;;;;;;;6.07;2.13;;;;;;;21.47;70.70;100166.97;5098727;28;20032;-73
2023/07/02 08:11:12;;;;;;;7.10;2.60;;;;;;;21.52;70.82;100167.59;5098065;28;20035;-73
2023/07/02 08:13:37;;;;;;;8.73;2.53;;;;;;;21.59;70.58;100173.50;5098886;28;20032;-73
2023/07/02 08:16:03;;;;;;;8.80;2.47;;;;;;;21.65;70.71;100172.34;5098354;28;20063;-73
2023/07/02 08:18:28;;;;;;;6.00;2.37;;;;;;;21.72;70.26;100165.72;5092449;28;20027;-73
2023/07/02 08:20:54;;;;;;;4.88;1.77;;;;;;;21.82;69.94;100162.53;5088852;28;20031;-73
2023/07/02 08:23:19;;;;;;;6.57;2.60;;;;;;;21.91;69.84;100156.72;5098315;28;20027;-73
2023/07/02 08:25:45;;;;;;;5.90;2.20;;;;;;;21.94;69.95;100162.78;5096825;28;20111;-73
2023/07/02 08:28:10;;;;;;;6.53;1.83;;;;;;;21.98;69.63;100158.13;5089890;28;20025;-71
2023/07/02 08:30:36;;;;;;;5.97;2.00;;;;;;;21.93;69.50;100162.88;5095734;28;20467;-69
2023/07/02 08:33:01;;;;;;;5.63;2.20;;;;;;;21.90;69.50;100171.06;5098967;28;20024;-70
2023/07/02 08:35:27;;;;;;;7.30;2.03;;;;;;;21.87;70.12;100165.88;5081700;28;20539;-70
2023/07/02 08:37:52;;;;;;;6.18;2.13;;;;;;;21.87;69.88;100160.50;5096654;28;20016;-70
2023/07/02 08:40:21;;;;;;;6.97;2.17;;;;;;;21.89;70.13;100163.97;5096845;28;20055;-70
2023/07/02 08:42:47;;;;;;;7.20;2.40;;;;;;;21.93;69.92;100162.88;5096803;28;20024;-72
2023/07/02 08:45:16;;;;;;;6.45;2.20;;;;;;;21.98;70.36;100160.78;5095917;28;20024;-71
2023/07/02 08:47:43;;;;;;;6.23;2.40;;;;;;;22.03;70.09;100155.19;5097852;28;20388;-71
2023/07/02 08:50:09;;;;;;;5.95;2.10;;;;;;;22.14;70.08;100162.66;5096303;28;20028;-70
2023/07/02 08:52:34;;;;;;;4.13;1.90;;;;;;;22.19;69.68;100155.22;5097881;28;20584;-71
2023/07/02 08:55:00;;;;;;;5.37;1.90;;;;;;;22.24;69.67;100163.88;5096275;28;20024;-71
2023/07/02 08:57:25;;;;;;;6.40;1.80;;;;;;;22.24;69.22;100161.19;5113435;28;20454;-70
2023/07/02 08:59:51;;;;;;;4.60;1.80;;;;;;;22.23;69.14;100159.47;5117796;28;20032;-71
2023/07/02 09:02:17;;;;;;;5.18;1.80;;;;;;;22.25;69.03;100162.06;5118217;28;20023;-70
2023/07/02 09:04:42;;;;;;;5.38;1.88;;;;;;;22.25;69.24;100162.94;5117993;28;20035;-71
2023/07/02 09:07:10;;;;;;;4.60;1.70;;;;;;;22.24;69.06;100163.88;5118082;28;20072;-71
2023/07/02 09:09:50;;;;;;;4.43;1.60;;;;;;;22.25;69.12;100160.25;5117688;28;20475;-70
2023/07/02 09:12:22;;;;;;;4.28;1.60;;;;;;;22.27;69.28;100157.50;5092742;28;20034;-70
2023/07/02 09:14:54;;;;;;;4.37;1.70;;;;;;;22.33;69.26;100163.41;5118030;28;20024;-70
2023/07/02 09:17:19;;;;;;;3.90;1.50;;;;;;;22.39;69.15;100158.63;5099300;28;20079;-70
2023/07/02 09:19:51;;;;;;;4.10;1.50;;;;;;;22.44;69.05;100151.19;5118036;28;20559;-71
2023/07/02 09:22:17;;;;;;;3.88;1.10;;;;;;;22.56;68.66;100163.97;5117749;28;20034;-71
2023/07/02 09:24:52;;;;;;;2.50;0.70;;;;;;;22.64;68.16;100159.03;5117926;28;20102;-70
2023/07/02 09:27:17;;;;;;;2.90;0.80;;;;;;;22.82;68.16;100158.94;5117360;28;20024;-70
2023/07/02 09:29:43;;;;;;;3.45;0.95;;;;;;;22.96;67.94;100159.94;5117431;28;20080;-70
2023/07/02 09:32:08;;;;;;;3.60;1.10;;;;;;;23.04;67.63;100155.00;5117610;28;20023;-71
2023/07/02 09:34:35;;;;;;;3.95;1.30;;;;;;;23.09;67.82;100160.97;5117778;28;20020;-70
2023/07/02 09:37:03;;;;;;;5.17;1.20;;;;;;;23.03;68.18;100166.69;5117522;28;20026;-70
2023/07/02 09:39:30;;;;;;;4.30;1.33;;;;;;;22.92;68.62;100173.56;5117508;28;20494;-70
2023/07/02 09:41:57;;;;;;;4.10;1.02;;;;;;;22.79;69.78;100176.06;5117553;28;20021;-69
2023/07/02 09:44:42;;;;;;;3.63;1.00;;;;;;;22.59;70.08;100179.88;5117404;28;20034;-69
2023/07/02 09:47:09;;;;;;;4.38;1.00;;;;;;;22.56;70.06;100184.56;5117313;28;20022;-70
2023/07/02 09:49:43;;;;;;;2.73;0.67;;;;;;;22.52;70.05;100183.84;5099061;28;20126;-70
2023/07/02 09:52:10;;;;;;;2.30;0.50;;;;;;;22.54;70.20;100184.63;5117282;28;20437;-70
2023/07/02 09:54:36;;;;;;;2.47;0.50;;;;;;;22.54;70.32;100187.31;5117406;28;20391;-70
2023/07/02 09:57:02;;;;;;;2.75;0.50;;;;;;;22.50;70.58;100185.75;5117006;28;20115;-70
2023/07/02 09:59:28;;;;;;;2.85;0.40;;;;;;;22.45;70.63;100188.69;5117474;28;20423;-70
2023/07/02 10:01:55;;;;;;;1.83;0.40;;;;;;;22.41;71.07;100196.97;5117217;28;20102;-70
2023/07/02 10:04:23;;;;;;;2.47;0.60;;;;;;;22.33;71.32;100200.94;5117163;28;20022;-70
2023/07/02 10:06:56;;;;;;;2.50;0.52;;;;;;;22.29;71.63;100199.34;5117217;28;20059;-70
2023/07/02 10:09:48;;;;;;;2.65;0.55;;;;;;;22.19;72.33;100198.13;5098980;28;20104;-70
2023/07/02 10:12:19;;;;;;;2.85;0.50;;;;;;;22.18;72.17;100201.75;5109658;28;20024;-70
2023/07/02 10:14:46;;;;;;;1.80;0.43;;;;;;;22.23;72.10;100199.69;5116941;28;20046;-70
2023/07/02 10:17:28;;;;;;;3.47;0.52;;;;;;;22.25;72.33;100202.31;5116869;28;21443;-70
2023/07/02 10:19:55;;;;;;;2.55;0.60;;;;;;;22.30;72.16;100201.09;5098381;28;20028;-70
2023/07/02 10:22:21;;;;;;;2.70;0.50;;;;;;;22.36;71.58;100199.91;5116474;28;20057;-70
2023/07/02 10:24:53;;;;;;;3.13;0.50;;;;;;;22.42;71.41;100198.69;5116810;28;20023;-70
2023/07/02 10:27:18;;;;;;;2.47;0.50;;;;;;;22.52;70.95;100205.31;5116710;28;20288;-70
2023/07/02 10:29:50;;;;;;;3.22;0.70;;;;;;;22.60;71.16;100197.72;5098396;28;20445;-70
2023/07/02 10:32:28;;;;;;;2.57;0.50;;;;;;;22.66;70.73;100201.88;5116762;28;20098;-69
2023/07/02 10:34:53;;;;;;;3.13;0.90;;;;;;;22.71;70.99;100191.75;5115983;28;20106;-69
2023/07/02 10:37:19;;;;;;;2.60;0.60;;;;;;;22.82;70.91;100196.53;5115844;28;20052;-70
2023/07/02 10:39:44;;;;;;;2.83;0.70;;;;;;;22.97;70.88;100191.22;5100756;28;20016;-69
2023/07/02 10:42:10;;;;;;;3.20;0.67;;;;;;;23.13;70.76;100186.69;5120346;28;20059;-69
2023/07/02 10:44:47;;;;;;;2.80;0.70;;;;;;;23.27;70.37;100185.03;5117032;28;20383;-69
2023/07/02 10:47:12;;;;;;;2.30;0.60;;;;;;;23.36;70.23;100192.59;5109602;28;20273;-70
2023/07/02 10:49:38;;;;;;;2.00;0.50;;;;;;;23.43;70.22;100193.09;5120664;28;20059;-70
2023/07/02 10:52:04;;;;;;;4.13;0.77;;;;;;;23.49;70.62;100190.88;5120528;28;20269;-70
2023/07/02 10:54:44;;;;;;;2.70;0.70;;;;;;;23.53;69.87;100190.72;5099673;28;20395;-70
2023/07/02 10:57:10;;;;;;;3.10;0.80;;;;;;;23.60;70.43;100189.38;5111821;28;20515;-70
2023/07/02 10:59:36;;;;;;;3.20;0.60;;;;;;;23.69;69.60;100190.66;5101789;28;20066;-70
2023/07/02 11:02:03;;;;;;;3.13;0.70;;;;;;;23.74;69.72;100192.09;5108566;28;20023;-69
2023/07/02 11:04:33;;;;;;;3.17;0.73;;;;;;;23.84;69.78;100183.47;5120210;28;20266;-69
2023/07/02 11:06:59;;;;;;;5.22;0.70;;;;;;;23.94;69.25;100180.13;5101830;28;20016;-70
2023/07/02 11:09:24;;;;;;;2.55;0.60;;;;;;;24.10;69.15;100181.03;5119556;28;20119;-69
2023/07/02 11:11:52;;;;;;;3.50;0.60;;;;;;;24.39;68.67;100172.94;5120281;28;20019;-71
2023/07/02 11:14:39;;;;;;;2.92;0.70;;;;;;;24.60;68.48;100174.28;5120273;28;20027;-68
2023/07/02 11:17:06;;;;;;;2.70;0.60;;;;;;;24.83;67.47;100168.38;5119643;28;20028;-77
2023/07/02 11:19:33;;;;;;;3.35;0.90;;;;;;;24.97;67.09;100172.88;5120225;28;20024;-76